Time;durP1;ratioP1;P1;durP2;ratioP2;P2;SDS_P1;SDS_P2;PMS_P1;PMS_P2;Temp;Humidity;BMP_temperature;BMP_pressure;BME280_temperature;BME280_humidity;BME280_pressure;Samples;Min_cycle;Max_cycle;Signal;HPM_P1;HPM_P2
2023/08/17 00:01:02;;;;;;;;;;;;;;;;;;;;;
2023/08/17 00:03:30;;;;;;;2.47;2.03;;;20.90;62.60;;;;;;4885339;29;20293;-58
2023/08/17 00:05:57;;;;;;;3.58;2.40;;;20.90;62.60;;;;;;4915113;29;20316;-60
2023/08/17 00:18:07;;;;;;;2.47;2.13;;;20.90;62.80;;;;;;4905826;29;20260;-58
2023/08/17 00:26:53;;;;;;;3.20;2.25;;;20.90;62.90;;;;;;4900009;29;20229;-60
2023/08/17 00:29:21;;;;;;;2.35;2.05;;;20.90;62.90;;;;;;4914732;29;20279;-59
2023/08/17 00:31:48;;;;;;;2.75;2.42;;;20.90;63.00;;;;;;4917503;29;20245;-61
2023/08/17 00:34:16;;;;;;;3.88;2.80;;;21.00;63.00;;;;;;4915944;29;20292;-60
2023/08/17 00:36:43;;;;;;;2.90;2.28;;;20.90;63.00;;;;;;4915301;29;20308;-56
2023/08/17 00:39:10;;;;;;;4.13;2.60;;;20.90;63.00;;;;;;4916403;29;20698;-59
2023/08/17 00:41:38;;;;;;;3.35;2.60;;;20.90;63.00;;;;;;4931988;29;20312;-58
2023/08/17 00:44:32;;;;;;;2.80;2.60;;;20.90;63.10;;;;;;4935014;29;20211;-59
2023/08/17 00:47:15;;;;;;;3.97;2.92;;;20.90;63.10;;;;;;4884676;29;20287;-59
2023/08/17 00:49:46;;;;;;;2.78;2.50;;;20.90;63.10;;;;;;4932036;29;20373;-58
2023/08/17 00:52:13;;;;;;;2.75;2.30;;;20.90;63.10;;;;;;4931405;29;20441;-59
2023/08/17 00:54:46;;;;;;;3.42;2.75;;;20.90;63.10;;;;;;4934558;29;20196;-59
2023/08/17 00:57:30;;;;;;;3.40;2.50;;;20.90;63.10;;;;;;4931688;29;20204;-59
2023/08/17 01:00:00;;;;;;;3.42;2.67;;;20.90;63.10;;;;;;4930383;29;20267;-59
2023/08/17 01:06:36;;;;;;;3.50;2.85;;;20.90;63.10;;;;;;4804387;29;20265;-57
2023/08/17 01:12:05;;;;;;;3.05;2.80;;;20.90;63.20;;;;;;4927833;29;20232;-59
2023/08/17 01:14:38;;;;;;;4.00;3.00;;;20.90;63.40;;;;;;4934433;29;20203;-57
2023/08/17 01:17:12;;;;;;;3.60;2.63;;;20.80;63.20;;;;;;4934410;29;20219;-56
2023/08/17 01:19:55;;;;;;;4.15;3.17;;;20.90;63.40;;;;;;4931392;29;20228;-57
2023/08/17 01:22:25;;;;;;;3.40;3.10;;;20.90;63.40;;;;;;4934348;29;20206;-55
2023/08/17 01:30:59;;;;;;;5.57;3.00;;;20.90;63.50;;;;;;4826344;29;20270;-58
2023/08/17 01:33:38;;;;;;;4.18;3.00;;;20.90;63.60;;;;;;4924602;29;20227;-57
2023/08/17 01:39:04;;;;;;;5.07;2.88;;;20.80;63.50;;;;;;4934041;29;20276;-59
2023/08/17 01:41:34;;;;;;;3.38;2.92;;;20.90;63.70;;;;;;4934024;29;20256;-57
2023/08/17 01:47:07;;;;;;;3.28;2.88;;;20.90;63.70;;;;;;4930148;29;20231;-58
2023/08/17 01:49:46;;;;;;;2.92;2.70;;;20.90;63.70;;;;;;4933339;29;20200;-59
2023/08/17 01:52:14;;;;;;;4.47;2.92;;;20.90;63.70;;;;;;4887483;29;20757;-60
2023/08/17 02:02:21;;;;;;;;;;;;;;;;;;;;;
2023/08/17 02:04:50;;;;;;;3.80;3.17;;;20.90;63.90;;;;;;4886222;29;20214;-57
2023/08/17 02:07:17;;;;;;;6.75;3.40;;;20.80;63.80;;;;;;4933328;29;20769;-59
2023/08/17 02:09:53;;;;;;;4.68;3.20;;;20.80;63.90;;;;;;4930202;29;20232;-60
2023/08/17 02:15:39;;;;;;;;;;;;;;;;;;;;;
2023/08/17 02:24:46;;;;;;;4.78;3.08;;;20.80;64.10;;;;;;4802714;29;20616;-58
2023/08/17 02:27:24;;;;;;;4.03;3.30;;;20.90;64.20;;;;;;4837347;29;20211;-56
2023/08/17 02:29:51;;;;;;;3.58;3.10;;;20.80;64.20;;;;;;4779886;29;20263;-60
2023/08/17 02:32:19;;;;;;;4.35;2.72;;;20.90;64.30;;;;;;4839767;29;20250;-57
2023/08/17 02:34:46;;;;;;;3.55;2.83;;;20.80;64.30;;;;;;4835673;29;20203;-57
2023/08/17 02:37:13;;;;;;;3.78;3.10;;;20.90;64.40;;;;;;4836443;29;20200;-59
2023/08/17 02:39:41;;;;;;;4.35;3.08;;;20.90;64.40;;;;;;4839439;29;20318;-57
2023/08/17 02:42:11;;;;;;;3.58;3.03;;;20.80;64.30;;;;;;4835025;29;20311;-57
2023/08/17 02:44:41;;;;;;;5.05;3.33;;;20.90;64.50;;;;;;4820958;29;20205;-57
2023/08/17 02:47:08;;;;;;;3.08;2.78;;;20.90;64.50;;;;;;4821574;29;20253;-59
2023/08/17 02:49:36;;;;;;;3.40;2.70;;;20.80;64.40;;;;;;4821186;29;20193;-55
2023/08/17 02:55:29;;;;;;;4.15;2.85;;;20.80;64.50;;;;;;4727914;30;20641;-56
2023/08/17 03:01:11;;;;;;;3.30;2.90;;;20.80;64.60;;;;;;4889807;29;20235;-60
2023/08/17 03:03:39;;;;;;;4.18;3.15;;;20.90;64.70;;;;;;4932642;29;20283;-56
2023/08/17 03:06:07;;;;;;;4.18;2.80;;;20.80;64.70;;;;;;4929302;29;20830;-56
2023/08/17 03:08:34;;;;;;;3.17;2.88;;;20.80;64.70;;;;;;4931708;29;20192;-56
2023/08/17 03:11:02;;;;;;;4.35;3.25;;;20.90;64.80;;;;;;4932486;29;20216;-60
2023/08/17 03:13:30;;;;;;;4.00;2.80;;;20.90;64.90;;;;;;4928990;29;20291;-61
2023/08/17 03:16:11;;;;;;;3.45;2.80;;;20.90;65.00;;;;;;4932389;29;20306;-57
2023/08/17 03:22:24;;;;;;;4.30;2.83;;;20.80;64.90;;;;;;4932707;29;20283;-57
2023/08/17 03:27:33;;;;;;;4.22;3.15;;;20.90;65.10;;;;;;4929476;29;20285;-57
2023/08/17 03:39:17;;;;;;;5.30;3.25;;;20.90;65.20;;;;;;4861052;29;20206;-59
2023/08/17 03:41:44;;;;;;;5.07;3.00;;;20.80;65.20;;;;;;4913972;29;20386;-57
2023/08/17 03:44:13;;;;;;;8.82;3.42;;;20.80;65.20;;;;;;4913578;29;20201;-60
2023/08/17 03:46:42;;;;;;;5.18;3.10;;;20.90;65.40;;;;;;4911167;29;20272;-59
2023/08/17 03:49:09;;;;;;;4.97;3.10;;;20.90;65.30;;;;;;4913266;29;20257;-57
2023/08/17 03:51:39;;;;;;;6.38;3.30;;;20.80;65.30;;;;;;4913372;29;20240;-57
2023/08/17 03:54:13;;;;;;;3.60;3.30;;;20.80;65.30;;;;;;4911538;29;20283;-59
2023/08/17 03:56:41;;;;;;;5.07;3.17;;;20.80;65.40;;;;;;4912885;29;20770;-58
2023/08/17 03:59:08;;;;;;;4.95;3.30;;;20.80;65.30;;;;;;4913108;29;20204;-58
2023/08/17 04:01:35;;;;;;;4.10;3.25;;;20.90;65.50;;;;;;4913176;29;20233;-57
2023/08/17 04:04:14;;;;;;;;;;;;;;;;;;;;;
2023/08/17 04:07:00;;;;;;;5.07;3.55;;;20.80;65.40;;;;;;4850274;29;20232;-59
2023/08/17 04:09:30;;;;;;;4.43;3.13;;;20.90;65.60;;;;;;4911468;29;20193;-56
2023/08/17 04:11:57;;;;;;;5.75;3.38;;;20.90;65.60;;;;;;4912905;29;20236;-57
2023/08/17 04:14:24;;;;;;;5.03;3.40;;;20.90;65.60;;;;;;4913063;29;20203;-59
2023/08/17 04:16:51;;;;;;;5.35;3.40;;;20.90;65.70;;;;;;4912979;29;20276;-57
2023/08/17 04:19:20;;;;;;;5.43;3.60;;;20.90;66.50;;;;;;4913014;29;20190;-56
2023/08/17 04:21:48;;;;;;;4.38;3.47;;;20.90;65.70;;;;;;4911197;29;20599;-57
2023/08/17 04:24:16;;;;;;;7.05;3.65;;;20.90;65.70;;;;;;4913077;29;20194;-55
2023/08/17 04:26:45;;;;;;;5.20;3.30;;;20.90;65.80;;;;;;4914712;29;20319;-55
2023/08/17 04:29:14;;;;;;;4.57;3.30;;;20.90;65.80;;;;;;4915729;29;20213;-54
2023/08/17 04:32:08;;;;;;;4.82;3.40;;;20.90;65.90;;;;;;4916370;29;20241;-55
2023/08/17 04:34:36;;;;;;;3.85;3.42;;;20.80;65.90;;;;;;4872226;29;20212;-57
2023/08/17 04:37:04;;;;;;;6.97;3.72;;;20.90;65.90;;;;;;4914172;29;20220;-57
2023/08/17 04:42:12;;;;;;;7.20;3.80;;;20.80;65.90;;;;;;4934973;29;20220;-59
2023/08/17 04:44:39;;;;;;;4.70;3.70;;;20.90;66.00;;;;;;4935380;29;20204;-57
2023/08/17 04:47:06;;;;;;;6.50;3.72;;;20.80;66.00;;;;;;4932188;29;20227;-57
2023/08/17 04:50:19;;;;;;;;;;;;;;;;;;;;;
2023/08/17 04:52:52;;;;;;;6.45;3.78;;;20.80;66.10;;;;;;4918856;29;20236;-56
2023/08/17 04:55:19;;;;;;;5.65;3.90;;;20.80;66.00;;;;;;4934986;29;20196;-58
2023/08/17 04:57:47;;;;;;;6.85;4.47;;;20.80;66.10;;;;;;4930920;29;20239;-58
2023/08/17 05:00:16;;;;;;;6.47;4.15;;;20.80;66.10;;;;;;4934285;29;20542;-59
2023/08/17 05:02:43;;;;;;;7.22;3.78;;;20.80;66.10;;;;;;4934209;29;20255;-60
2023/08/17 05:05:14;;;;;;;4.43;3.55;;;20.90;66.30;;;;;;4934098;29;20280;-58
2023/08/17 05:07:41;;;;;;;5.60;4.00;;;20.90;66.30;;;;;;4934301;29;20240;-56
2023/08/17 05:10:09;;;;;;;5.13;3.88;;;20.90;66.30;;;;;;4934245;29;20200;-57
2023/08/17 05:12:36;;;;;;;6.88;4.13;;;20.80;66.20;;;;;;4934300;29;20306;-59
2023/08/17 05:15:04;;;;;;;5.93;3.97;;;20.80;66.30;;;;;;4934364;29;20284;-57
2023/08/17 05:17:32;;;;;;;5.40;4.00;;;20.90;66.40;;;;;;4934381;29;20334;-56
2023/08/17 05:19:59;;;;;;;8.80;3.88;;;20.90;66.40;;;;;;4934534;29;20200;-58
2023/08/17 05:22:29;;;;;;;7.15;4.13;;;20.80;66.30;;;;;;4931449;29;20231;-57
2023/08/17 05:24:56;;;;;;;5.97;4.07;;;20.80;66.40;;;;;;4934444;29;20193;-56
2023/08/17 05:27:23;;;;;;;8.27;4.40;;;20.90;66.50;;;;;;4934315;29;20271;-58
2023/08/17 05:29:54;;;;;;;7.75;4.07;;;20.80;66.50;;;;;;4934217;29;20288;-56
2023/08/17 05:32:21;;;;;;;7.55;4.35;;;20.90;66.70;;;;;;4934476;29;20240;-56
2023/08/17 05:34:49;;;;;;;5.50;3.67;;;20.80;66.60;;;;;;4930316;29;20189;-59
2023/08/17 05:37:16;;;;;;;6.07;3.97;;;20.90;66.70;;;;;;4933892;29;20224;-58
2023/08/17 05:39:57;;;;;;;6.10;4.07;;;20.80;66.70;;;;;;4933919;29;20326;-57
2023/08/17 05:42:39;;;;;;;;;;;;;;;;;;;;;
2023/08/17 05:48:00;;;;;;;4.53;3.33;;;20.80;66.80;;;;;;4933396;29;20188;-56
2023/08/17 05:50:29;;;;;;;5.85;4.10;;;20.80;66.80;;;;;;4932369;29;20302;-56
2023/08/17 05:52:56;;;;;;;5.15;3.90;;;20.90;66.90;;;;;;4933745;29;20303;-58
2023/08/17 05:55:26;;;;;;;6.43;3.85;;;20.90;66.90;;;;;;4933828;29;20189;-59
2023/08/17 05:58:03;;;;;;;5.68;4.00;;;20.90;66.90;;;;;;4933544;29;20258;-59
2023/08/17 06:03:12;;;;;;;5.47;3.70;;;20.80;66.80;;;;;;4931491;29;20204;-56
2023/08/17 06:05:40;;;;;;;5.88;3.60;;;20.80;66.80;;;;;;4933586;29;20220;-57
2023/08/17 06:14:36;;;;;;;3.80;3.22;;;20.80;66.80;;;;;;4931573;29;20223;-55
2023/08/17 06:17:04;;;;;;;7.10;3.80;;;20.90;66.90;;;;;;4933568;29;20284;-59
2023/08/17 06:22:39;;;;;;;4.75;3.80;;;20.80;66.90;;;;;;4836751;29;20235;-56
2023/08/17 06:25:19;;;;;;;5.80;4.00;;;20.80;66.90;;;;;;4837348;29;20208;-57
2023/08/17 06:37:40;;;;;;;7.50;3.65;;;20.80;67.00;;;;;;4785651;29;20259;-59
2023/08/17 06:40:08;;;;;;;8.43;3.70;;;20.90;67.20;;;;;;4798003;29;20240;-60
2023/08/17 06:42:36;;;;;;;5.38;3.58;;;20.80;67.10;;;;;;4837756;29;20243;-55
2023/08/17 06:45:05;;;;;;;5.25;3.83;;;20.90;67.20;;;;;;4839381;29;20203;-57
2023/08/17 06:47:33;;;;;;;5.68;3.20;;;20.90;67.20;;;;;;4839550;29;20691;-58
2023/08/17 06:50:01;;;;;;;5.65;3.65;;;20.80;67.20;;;;;;4838831;29;20236;-59
2023/08/17 06:52:28;;;;;;;4.50;3.55;;;20.80;67.20;;;;;;4860864;29;20242;-58
2023/08/17 06:54:58;;;;;;;4.63;3.13;;;20.80;67.20;;;;;;4932842;29;20208;-59
2023/08/17 06:57:26;;;;;;;4.20;3.45;;;20.80;67.30;;;;;;4932958;29;20231;-56
2023/08/17 06:59:54;;;;;;;8.45;3.53;;;20.90;67.50;;;;;;4932631;29;20231;-59
2023/08/17 07:02:24;;;;;;;4.13;3.28;;;20.80;67.30;;;;;;4932993;29;20303;-57
2023/08/17 07:04:54;;;;;;;4.85;3.38;;;20.80;67.50;;;;;;4930966;29;20235;-60
2023/08/17 07:07:26;;;;;;;5.30;3.58;;;20.90;67.50;;;;;;4918770;29;20216;-58
2023/08/17 07:09:55;;;;;;;5.95;3.47;;;20.90;67.70;;;;;;4932025;29;20204;-60
2023/08/17 07:12:25;;;;;;;7.97;3.72;;;21.00;67.80;;;;;;4931128;29;20221;-56
2023/08/17 07:15:08;;;;;;;6.20;3.45;;;21.00;67.70;;;;;;4929506;29;20198;-60
2023/08/17 07:17:39;;;;;;;5.68;3.60;;;21.00;67.70;;;;;;4928487;29;20286;-59
2023/08/17 07:23:30;;;;;;;4.25;3.28;;;21.00;67.60;;;;;;4873359;29;20207;-60
2023/08/17 07:28:50;;;;;;;4.30;3.30;;;21.10;67.60;;;;;;4854990;29;20222;-60
2023/08/17 07:31:33;;;;;;;5.43;3.80;;;21.10;67.60;;;;;;4868077;29;20224;-58
2023/08/17 07:34:01;;;;;;;5.85;3.20;;;21.20;67.80;;;;;;4927439;29;20315;-59
2023/08/17 07:42:55;;;;;;;8.48;3.83;;;21.10;67.70;;;;;;4872401;29;20204;-59
2023/08/17 07:45:40;;;;;;;4.57;3.40;;;21.20;67.70;;;;;;4841260;29;20209;-58
2023/08/17 07:48:38;;;;;;;5.18;3.47;;;21.20;68.00;;;;;;4860912;29;20206;-59
2023/08/17 07:51:05;;;;;;;4.05;3.10;;;21.20;68.00;;;;;;4874806;29;20309;-58
2023/08/17 07:53:34;;;;;;;7.47;3.80;;;21.30;68.00;;;;;;4875208;29;20301;-58
2023/08/17 07:56:02;;;;;;;6.30;3.67;;;21.30;68.00;;;;;;4875068;29;20314;-58
2023/08/17 07:58:29;;;;;;;5.47;3.30;;;21.30;68.00;;;;;;4875144;29;20275;-59
2023/08/17 08:00:56;;;;;;;4.95;3.17;;;21.30;68.00;;;;;;4877377;29;20215;-58
2023/08/17 08:03:23;;;;;;;6.18;3.20;;;21.30;68.00;;;;;;4895269;29;20287;-56
2023/08/17 08:05:50;;;;;;;3.70;3.08;;;21.30;68.10;;;;;;4934410;29;20327;-56
2023/08/17 08:08:17;;;;;;;5.35;3.25;;;21.40;68.20;;;;;;4934723;29;20232;-59
2023/08/17 08:10:45;;;;;;;3.72;3.33;;;21.40;68.10;;;;;;4932609;29;20268;-58
2023/08/17 08:13:12;;;;;;;3.70;3.00;;;21.50;68.00;;;;;;4934595;29;20215;-58
2023/08/17 08:15:39;;;;;;;6.20;3.45;;;21.50;67.90;;;;;;4934327;29;20216;-56
2023/08/17 08:18:06;;;;;;;4.55;3.03;;;21.50;67.80;;;;;;4934600;29;20196;-58
2023/08/17 08:20:33;;;;;;;5.30;3.30;;;21.50;67.80;;;;;;4934999;29;20200;-57
2023/08/17 08:22:59;;;;;;;4.35;2.75;;;21.50;67.80;;;;;;4934399;29;20332;-61
2023/08/17 08:25:26;;;;;;;6.57;3.22;;;21.50;67.90;;;;;;4933226;29;20631;-64
2023/08/17 08:27:54;;;;;;;4.22;3.30;;;21.50;67.70;;;;;;4934753;29;20758;-64
2023/08/17 08:30:21;;;;;;;5.50;3.03;;;21.60;67.80;;;;;;4932879;29;20185;-64
2023/08/17 08:32:49;;;;;;;5.70;3.35;;;21.60;67.80;;;;;;4934446;29;20216;-64
2023/08/17 08:35:16;;;;;;;7.63;3.60;;;21.60;67.70;;;;;;4934775;29;20687;-64
2023/08/17 08:37:43;;;;;;;3.50;3.10;;;21.60;67.70;;;;;;4933367;29;20224;-62
2023/08/17 08:40:18;;;;;;;5.38;3.08;;;21.70;67.80;;;;;;4934579;29;20236;-59
2023/08/17 08:43:03;;;;;;;5.80;3.60;;;21.70;67.80;;;;;;4932043;29;20298;-59
2023/08/17 08:45:31;;;;;;;6.03;3.10;;;21.70;67.80;;;;;;4934690;29;20196;-58
2023/08/17 08:48:00;;;;;;;5.07;3.35;;;21.70;67.80;;;;;;4934217;29;20234;-59
2023/08/17 08:50:32;;;;;;;6.65;3.22;;;21.70;67.80;;;;;;4934192;29;20200;-57
2023/08/17 08:53:02;;;;;;;3.63;3.10;;;21.70;67.80;;;;;;4933440;29;20714;-59
2023/08/17 08:55:35;;;;;;;3.80;2.97;;;21.70;68.50;;;;;;4934033;29;20202;-56
2023/08/17 08:58:05;;;;;;;5.03;3.30;;;21.70;67.70;;;;;;4933524;29;20289;-59
2023/08/17 09:00:34;;;;;;;3.90;3.00;;;21.70;67.70;;;;;;4934245;29;20273;-59
2023/08/17 09:03:03;;;;;;;4.75;2.72;;;21.70;67.70;;;;;;4932185;29;20305;-58
2023/08/17 09:05:34;;;;;;;7.68;3.17;;;21.80;67.80;;;;;;4934534;29;20204;-59
2023/08/17 09:08:04;;;;;;;3.63;2.80;;;21.80;67.80;;;;;;4933848;29;20189;-59
2023/08/17 09:13:21;;;;;;;7.10;3.30;;;21.80;67.80;;;;;;4933758;29;20231;-59
2023/08/17 09:15:49;;;;;;;5.50;2.95;;;21.80;67.80;;;;;;4933884;29;20323;-57
2023/08/17 09:18:17;;;;;;;6.32;3.10;;;21.80;67.80;;;;;;4930464;29;20207;-57
2023/08/17 09:20:46;;;;;;;4.97;3.15;;;21.80;67.80;;;;;;4933976;29;20283;-58
2023/08/17 09:23:15;;;;;;;6.10;3.58;;;21.80;67.80;;;;;;4932117;29;20686;-59
2023/08/17 09:26:24;;;;;;;;;;;;;;;;;;;;;
2023/08/17 09:28:54;;;;;;;5.70;3.20;;;21.90;68.00;;;;;;4925787;29;20208;-56
2023/08/17 09:31:29;;;;;;;6.55;3.28;;;21.80;67.80;;;;;;4933773;29;20698;-59
2023/08/17 09:33:57;;;;;;;5.13;3.40;;;21.80;67.80;;;;;;4933706;29;20330;-57
2023/08/17 09:36:27;;;;;;;4.57;3.15;;;21.90;68.00;;;;;;4933662;29;20311;-57
2023/08/17 09:38:56;;;;;;;5.30;3.13;;;21.90;68.00;;;;;;4933709;29;20357;-56
2023/08/17 09:41:23;;;;;;;6.47;2.90;;;21.90;68.00;;;;;;4933581;29;20244;-59
2023/08/17 09:44:39;;;;;;;6.15;3.08;;;21.90;67.90;;;;;;4933757;29;20255;-57
2023/08/17 09:47:32;;;;;;;5.65;3.05;;;21.90;68.00;;;;;;4924347;29;20228;-58
2023/08/17 09:50:39;;;;;;;6.22;3.38;;;21.90;67.90;;;;;;4892075;29;20204;-59
2023/08/17 09:53:06;;;;;;;3.90;2.80;;;21.90;68.00;;;;;;4933213;29;20259;-58
2023/08/17 09:55:34;;;;;;;4.63;3.08;;;21.90;68.00;;;;;;4949519;28;20249;-58
2023/08/17 09:58:14;;;;;;;;;;;;;;;;;;;;;
2023/08/17 10:00:46;;;;;;;5.65;3.33;;;21.90;68.00;;;;;;5008281;28;20203;-57
2023/08/17 10:03:30;;;;;;;5.32;3.00;;;21.90;68.00;;;;;;5008430;28;20272;-54
2023/08/17 10:06:10;;;;;;;3.90;3.22;;;21.90;68.00;;;;;;5008235;28;20224;-58
2023/08/17 10:11:31;;;;;;;8.40;3.33;;;21.90;67.90;;;;;;5008711;28;20303;-55
2023/08/17 10:14:05;;;;;;;4.63;3.10;;;21.90;68.00;;;;;;5010101;28;20221;-57
2023/08/17 10:16:42;;;;;;;7.20;3.30;;;21.90;68.00;;;;;;5009670;28;20231;-59
2023/08/17 10:19:16;;;;;;;4.05;3.15;;;22.00;68.10;;;;;;5010201;28;20189;-58
2023/08/17 10:21:51;;;;;;;4.85;3.05;;;22.00;68.10;;;;;;5010670;28;20220;-58
2023/08/17 10:24:24;;;;;;;4.60;3.20;;;22.00;68.10;;;;;;5009073;28;20189;-58
2023/08/17 10:27:17;;;;;;;9.63;3.53;;;22.00;68.10;;;;;;4959826;28;20221;-61
2023/08/17 10:29:45;;;;;;;5.70;3.35;;;22.00;68.10;;;;;;5003350;28;20198;-61
2023/08/17 10:32:13;;;;;;;4.10;3.20;;;22.00;68.10;;;;;;5005115;28;20217;-60
2023/08/17 10:34:54;;;;;;;6.15;3.25;;;22.00;68.10;;;;;;5010017;28;20256;-60
2023/08/17 10:37:24;;;;;;;4.57;3.25;;;22.10;68.10;;;;;;5009636;28;20220;-58
2023/08/17 10:39:52;;;;;;;5.50;3.53;;;22.20;68.20;;;;;;5014850;28;20224;-60
2023/08/17 10:42:33;;;;;;;4.10;3.33;;;22.10;68.10;;;;;;5028483;28;20337;-60
2023/08/17 10:45:25;;;;;;;5.40;3.65;;;22.20;68.10;;;;;;5029693;28;20188;-61
2023/08/17 10:51:44;;;;;;;4.25;3.58;;;22.20;67.80;;;;;;5027053;28;20196;-60
2023/08/17 10:57:45;;;;;;;6.03;3.53;;;22.30;67.80;;;;;;4964060;28;20223;-60
2023/08/17 11:10:39;;;;;;;4.95;3.17;;;22.30;67.70;;;;;;5029471;28;20184;-62
2023/08/17 11:16:37;;;;;;;4.93;3.60;;;22.40;67.70;;;;;;4949134;29;20314;-60
2023/08/17 11:26:08;;;;;;;3.83;3.40;;;22.40;67.60;;;;;;4950682;29;20194;-63
2023/08/17 11:31:27;;;;;;;7.30;3.90;;;22.50;67.70;;;;;;4950136;29;20220;-59
2023/08/17 11:33:57;;;;;;;5.60;4.07;;;22.50;67.70;;;;;;4950270;28;20317;-62
2023/08/17 11:37:07;;;;;;;6.45;4.05;;;22.50;67.60;;;;;;4953534;29;20278;-61
2023/08/17 11:39:54;;;;;;;5.47;4.07;;;22.50;67.70;;;;;;4947398;29;20203;-61
2023/08/17 11:42:50;;;;;;;5.13;3.55;;;22.50;67.60;;;;;;4923353;29;20229;-60
2023/08/17 11:51:42;;;;;;;5.25;4.05;;;22.60;67.70;;;;;;4826999;29;20224;-60
2023/08/17 11:54:09;;;;;;;6.43;4.38;;;22.50;67.60;;;;;;4878485;29;20230;-62
2023/08/17 11:56:38;;;;;;;5.82;4.18;;;22.60;67.70;;;;;;4878866;29;20228;-62
2023/08/17 11:59:34;;;;;;;6.82;4.20;;;22.60;67.70;;;;;;4878089;29;20214;-61
2023/08/17 12:05:37;;;;;;;8.95;3.92;;;22.60;67.80;;;;;;4860070;29;20260;-62
2023/08/17 12:08:19;;;;;;;7.22;4.30;;;22.60;67.70;;;;;;4873318;29;20294;-63
2023/08/17 12:21:32;;;;;;;4.97;3.45;;;22.70;67.60;;;;;;4808639;29;20271;-63
2023/08/17 12:24:53;;;;;;;7.70;4.18;;;22.70;67.60;;;;;;4840593;29;20201;-62
2023/08/17 12:30:40;;;;;;;8.38;4.30;;;22.80;67.60;;;;;;4848240;29;20215;-63
2023/08/17 12:36:23;;;;;;;5.50;3.80;;;22.80;67.60;;;;;;4846575;29;20740;-63
2023/08/17 12:38:58;;;;;;;5.70;4.10;;;22.80;67.60;;;;;;4904945;29;20711;-62
2023/08/17 12:41:26;;;;;;;11.27;4.05;;;22.80;67.50;;;;;;4880685;29;20232;-61
2023/08/17 12:49:46;;;;;;;5.85;4.10;;;22.90;67.50;;;;;;4783440;29;20664;-63
2023/08/17 12:52:13;;;;;;;5.13;3.63;;;22.90;67.40;;;;;;4871533;29;20313;-62
2023/08/17 13:16:16;;;;;;;6.57;4.10;;;22.90;67.30;;;;;;4701624;30;20290;-63
2023/08/17 13:18:55;;;;;;;;;;;;;;;;;;;;;
2023/08/17 13:43:12;;;;;;;8.20;3.92;;;23.00;67.20;;;;;;4929952;28;20243;-61
2023/08/17 13:45:48;;;;;;;6.50;3.90;;;23.00;67.20;;;;;;4992608;28;20201;-61
2023/08/17 13:48:16;;;;;;;6.53;3.80;;;23.10;67.20;;;;;;4997863;28;20220;-62
2023/08/17 13:57:00;;;;;;;5.88;3.90;;;23.00;67.00;;;;;;4912901;29;20299;-64
2023/08/17 13:59:42;;;;;;;6.38;3.45;;;23.00;67.00;;;;;;4994336;28;20299;-63
2023/08/17 14:08:03;;;;;;;7.75;3.67;;;23.00;67.00;;;;;;4883533;29;20233;-62
2023/08/17 14:10:31;;;;;;;6.72;3.70;;;23.00;66.90;;;;;;4922073;29;20211;-63
2023/08/17 14:20:26;;;;;;;5.72;3.60;;;23.10;67.00;;;;;;4922211;29;20212;-63
2023/08/17 14:23:40;;;;;;;4.50;3.88;;;23.00;67.00;;;;;;4923458;29;20645;-60
2023/08/17 14:26:15;;;;;;;5.95;3.60;;;23.00;66.90;;;;;;4925454;29;20271;-61
2023/08/17 14:28:48;;;;;;;5.53;3.30;;;23.10;67.00;;;;;;4924332;29;20215;-62
2023/08/17 14:31:20;;;;;;;5.05;3.50;;;23.00;66.90;;;;;;4916762;29;20196;-61
2023/08/17 14:33:49;;;;;;;7.45;3.70;;;23.10;66.90;;;;;;4924338;29;20216;-59
2023/08/17 14:43:13;;;;;;;;;;;;;;;;;;;;;
2023/08/17 14:45:43;;;;;;;5.45;3.80;;;23.10;67.10;;;;;;4808572;29;20202;-62
2023/08/17 14:51:09;;;;;;;5.78;3.38;;;23.10;67.00;;;;;;4837699;29;20319;-55
2023/08/17 14:53:37;;;;;;;5.70;3.70;;;23.10;66.90;;;;;;4891364;29;20444;-62
2023/08/17 14:56:50;;;;;;;7.10;3.45;;;23.10;67.00;;;;;;4930046;29;20242;-62
2023/08/17 14:59:24;;;;;;;4.55;3.35;;;23.20;67.10;;;;;;4928504;29;20199;-62
2023/08/17 15:01:54;;;;;;;10.23;4.05;;;23.20;67.00;;;;;;4935490;29;20359;-62
2023/08/17 15:07:55;;;;;;;7.80;3.70;;;23.20;67.00;;;;;;4864426;29;20227;-61
2023/08/17 15:10:25;;;;;;;6.63;3.75;;;23.20;66.90;;;;;;4865515;29;20206;-60
2023/08/17 15:13:29;;;;;;;4.85;3.45;;;23.20;66.90;;;;;;4939603;29;20224;-60
2023/08/17 15:33:16;;;;;;;8.52;4.00;;;23.40;66.90;;;;;;4875157;29;20241;-61
2023/08/17 15:35:43;;;;;;;7.35;4.15;;;23.40;66.70;;;;;;4935647;29;20257;-60
2023/08/17 15:55:56;;;;;;;9.40;3.75;;;23.60;66.30;;;;;;4867637;29;20374;-63
2023/08/17 15:58:23;;;;;;;7.93;3.63;;;23.60;66.20;;;;;;4869398;29;20277;-64
2023/08/17 16:00:51;;;;;;;7.20;3.88;;;23.60;66.10;;;;;;4866926;29;20214;-62
2023/08/17 16:03:25;;;;;;;10.85;3.75;;;23.60;66.00;;;;;;4870904;29;20231;-61
2023/08/17 16:06:11;;;;;;;9.07;3.83;;;23.60;66.10;;;;;;4874511;29;20206;-63
2023/08/17 16:40:29;;;;;;;;;;;;;;;;;;;;;
2023/08/17 16:46:35;;;;;;;7.97;3.30;;;23.10;66.80;;;;;;4854865;29;20242;-62
2023/08/17 17:01:16;;;;;;;7.68;3.60;;;22.90;66.90;;;;;;4825313;29;20262;-62
2023/08/17 17:03:46;;;;;;;6.15;3.83;;;22.90;66.90;;;;;;4915064;29;20197;-62
2023/08/17 17:09:57;;;;;;;;;;;;;;;;;;;;;
2023/08/17 17:23:06;;;;;;;9.63;3.88;;;22.80;66.90;;;;;;4934105;29;20643;-63
2023/08/17 17:25:35;;;;;;;7.05;3.45;;;22.80;66.90;;;;;;4933751;29;20196;-62
2023/08/17 17:28:04;;;;;;;5.95;3.53;;;22.80;67.00;;;;;;4967101;28;20263;-60
2023/08/17 17:30:31;;;;;;;7.55;3.40;;;22.80;67.00;;;;;;5010963;28;20193;-61
2023/08/17 17:33:00;;;;;;;7.00;3.47;;;22.80;67.00;;;;;;5010860;28;20221;-61
2023/08/17 17:35:27;;;;;;;6.50;4.05;;;22.80;67.80;;;;;;5010333;28;20238;-62
2023/08/17 17:37:54;;;;;;;7.70;3.30;;;22.80;67.00;;;;;;5011082;28;20224;-61
2023/08/17 17:40:22;;;;;;;7.40;3.63;;;22.70;66.90;;;;;;5010319;28;20253;-61
2023/08/17 17:42:50;;;;;;;7.63;3.30;;;22.70;66.90;;;;;;5011206;28;20217;-62
2023/08/17 17:45:19;;;;;;;6.00;3.58;;;22.70;67.00;;;;;;5010817;28;20196;-61
2023/08/17 17:47:46;;;;;;;7.55;3.47;;;22.60;66.90;;;;;;5030219;28;20232;-61
2023/08/17 17:50:14;;;;;;;6.72;3.47;;;22.60;67.00;;;;;;5030918;28;20204;-62
2023/08/17 17:52:43;;;;;;;7.20;3.90;;;22.70;67.10;;;;;;5030693;28;20330;-60
2023/08/17 17:55:11;;;;;;;7.03;3.78;;;22.70;67.10;;;;;;5030036;28;20279;-61
2023/08/17 18:03:56;;;;;;;6.90;3.60;;;22.60;67.10;;;;;;4950917;29;20218;-61
2023/08/17 18:09:47;;;;;;;6.28;3.47;;;22.60;67.30;;;;;;4876583;29;20241;-57
2023/08/17 18:25:31;;;;;;;7.40;3.45;;;22.50;67.30;;;;;;4820921;29;20209;-57
2023/08/17 18:27:59;;;;;;;6.43;3.80;;;22.50;67.30;;;;;;4766750;30;20588;-61
2023/08/17 18:30:27;;;;;;;5.03;3.20;;;22.40;67.20;;;;;;4767066;30;20218;-59
2023/08/17 18:33:03;;;;;;;6.25;3.13;;;22.50;67.40;;;;;;4779474;29;20224;-57
2023/08/17 18:35:36;;;;;;;5.47;3.45;;;22.40;67.20;;;;;;4838941;29;20268;-60
2023/08/17 18:38:04;;;;;;;5.72;3.35;;;22.50;67.30;;;;;;4838911;29;20227;-57
2023/08/17 18:47:39;;;;;;;;;;;;;;;;;;;;;
2023/08/17 18:50:08;;;;;;;4.90;3.30;;;22.40;67.30;;;;;;4856866;29;20202;-59
2023/08/17 18:52:37;;;;;;;6.00;3.38;;;22.40;67.50;;;;;;4880931;29;20228;-60
2023/08/17 18:55:11;;;;;;;5.75;3.58;;;22.40;67.50;;;;;;4894452;29;20359;-59
2023/08/17 18:57:44;;;;;;;4.78;3.22;;;22.40;67.50;;;;;;4894055;29;20282;-60
2023/08/17 19:00:13;;;;;;;7.03;3.70;;;22.40;67.50;;;;;;4932953;29;20200;-60
2023/08/17 19:02:40;;;;;;;7.57;3.90;;;22.40;67.50;;;;;;4985303;28;20276;-60
2023/08/17 19:05:13;;;;;;;6.18;3.83;;;22.30;68.20;;;;;;5059368;28;20205;-60
2023/08/17 19:07:42;;;;;;;7.22;3.80;;;22.30;67.50;;;;;;5071157;28;20305;-59
2023/08/17 19:10:09;;;;;;;8.05;3.70;;;22.30;67.40;;;;;;5071543;28;20195;-63
2023/08/17 19:12:36;;;;;;;5.70;3.50;;;22.40;67.60;;;;;;5071599;28;20246;-64
2023/08/17 19:15:04;;;;;;;9.18;3.83;;;22.30;67.50;;;;;;5071560;28;20652;-64
2023/08/17 19:17:31;;;;;;;6.93;3.88;;;22.30;67.50;;;;;;5071774;28;20230;-63
2023/08/17 19:19:58;;;;;;;7.50;3.63;;;22.30;67.50;;;;;;5071368;28;20191;-62
2023/08/17 19:22:25;;;;;;;7.72;4.10;;;22.30;67.50;;;;;;5071298;28;20236;-57
2023/08/17 19:24:53;;;;;;;7.13;3.67;;;22.30;67.60;;;;;;5071453;28;20193;-61
2023/08/17 19:27:20;;;;;;;5.20;3.60;;;22.30;67.60;;;;;;5071337;28;20225;-53
2023/08/17 19:29:47;;;;;;;7.50;4.22;;;22.30;67.60;;;;;;5071612;28;20305;-57
2023/08/17 19:32:13;;;;;;;8.00;3.67;;;22.30;67.60;;;;;;5071474;28;20313;-59
2023/08/17 19:34:40;;;;;;;8.40;3.65;;;22.30;67.70;;;;;;5071418;28;20187;-59
2023/08/17 19:37:07;;;;;;;7.80;4.22;;;22.30;67.70;;;;;;5070779;28;20731;-56
2023/08/17 19:39:34;;;;;;;5.15;3.40;;;22.30;67.70;;;;;;5071679;28;20183;-58
2023/08/17 19:42:03;;;;;;;8.77;4.28;;;22.30;67.70;;;;;;5071185;28;20306;-57
2023/08/17 19:44:30;;;;;;;7.03;4.30;;;22.30;67.80;;;;;;5071408;28;20193;-58
2023/08/17 19:46:57;;;;;;;8.07;4.10;;;22.20;67.70;;;;;;5070582;28;20307;-59
2023/08/17 19:49:25;;;;;;;6.43;3.70;;;22.30;67.80;;;;;;5071604;28;20231;-56
2023/08/17 19:51:53;;;;;;;6.70;3.80;;;22.20;67.70;;;;;;5071172;28;20268;-57